This is the latest recevied weather packets stored in our database for station/object DL1DH-17. If no packets are shown the sender has not sent any weather packets the latest 10 day(s).
| Time | Temp. | Humidity | Pressure | Rain* | Wind** | Luminosity | Snow |
|---|---|---|---|---|---|---|---|
| 1778002980 | 13.89° C | 80% | 968 hPa | - | - | - | - |
| 1778002140 | 14.44° C | 80% | 968 hPa | - | - | - | - |
| 1778001300 | 14.44° C | 79% | 967.9 hPa | - | - | - | - |
| 1778000460 | 14.44° C | 78% | 968 hPa | - | - | - | - |
| 1777999620 | 14.44° C | 78% | 968.1 hPa | - | - | - | - |
| 1777998780 | 14.44° C | 77% | 968.2 hPa | - | - | - | - |
| 1777997940 | 14.44° C | 77% | 968.5 hPa | - | - | - | - |
| 1777997100 | 14.44° C | 76% | 968.6 hPa | - | - | - | - |
| 1777996260 | 15° C | 74% | 968.8 hPa | - | - | - | - |
| 1777995420 | 15° C | 73% | 968.9 hPa | - | - | - | - |
| 1777994579 | 15° C | 70% | 968.8 hPa | - | - | - | - |
| 1777993739 | 15.56° C | 67% | 968.5 hPa | - | - | - | - |
| 1777992899 | 17.22° C | 62% | 967.8 hPa | - | - | - | - |
| 1777992059 | 19.44° C | 53% | 967.3 hPa | - | - | - | - |
| 1777991219 | 20.56° C | 45% | 967 hPa | - | - | - | - |
| 1777990379 | 21.67° C | 42% | 966.8 hPa | - | - | - | - |
| 1777989539 | 22.22° C | 40% | 966.9 hPa | - | - | - | - |
| 1777988699 | 22.22° C | 41% | 967.1 hPa | - | - | - | - |
| 1777987859 | 21.67° C | 42% | 967.3 hPa | - | - | - | - |
| 1777987019 | 21.67° C | 43% | 967.5 hPa | - | - | - | - |
| 1777986179 | 21.67° C | 42% | 967.6 hPa | - | - | - | - |
| 1777985338 | 21.67° C | 43% | 967.8 hPa | - | - | - | - |
| 1777984498 | 21.67° C | 43% | 967.9 hPa | - | - | - | - |
| 1777983658 | 22.22° C | 44% | 968.1 hPa | - | - | - | - |
| 1777982818 | 22.22° C | 44% | 968.1 hPa | - | - | - | - |
* Rain since midnight (hover to see other rain measurements)
** Current wind speed in m/s (hover to see current wind gust speed)